createdAt,value
2023-03-10T04:57:13.896Z,0.60
2023-03-10T05:59:15.859Z,2.10
2023-03-10T06:01:43.982Z,0.80
2023-03-10T06:04:11.460Z,0.83
2023-03-10T06:06:39.069Z,0.87
2023-03-10T06:09:07.643Z,0.70
2023-03-10T06:11:37.656Z,1.77
2023-03-10T06:17:48.929Z,1.57
2023-03-10T06:20:16.512Z,1.20
2023-03-10T06:23:07.665Z,1.27
2023-03-10T06:25:46.943Z,1.13
2023-03-10T06:28:14.825Z,1.60
2023-03-10T06:30:45.113Z,1.33
2023-03-10T06:33:12.920Z,0.73
2023-03-10T06:35:43.427Z,1.43
2023-03-10T06:38:29.118Z,1.40
2023-03-10T06:40:57.714Z,1.63
2023-03-10T06:43:25.623Z,1.20
2023-03-10T06:45:53.335Z,1.20
2023-03-10T06:52:37.124Z,1.27
2023-03-10T08:02:27.377Z,2.63
2023-03-10T08:05:31.931Z,1.97
2023-03-10T08:08:04.423Z,1.47
2023-03-10T08:10:34.617Z,0.93
2023-03-10T08:13:06.430Z,1.50
2023-03-10T08:15:34.073Z,3.33
2023-03-10T08:18:24.188Z,1.30
2023-03-10T08:23:46.877Z,0.83
2023-03-10T08:26:18.754Z,1.30
2023-03-10T08:28:46.649Z,1.23
2023-03-10T08:31:20.585Z,0.90
2023-03-10T08:33:58.392Z,1.17
2023-03-10T08:36:33.443Z,0.90
2023-03-10T08:39:02.972Z,0.97
2023-03-10T08:41:37.593Z,1.07
2023-03-10T08:44:06.970Z,1.00
2023-03-10T08:46:35.133Z,0.97
2023-03-10T08:49:03.922Z,1.37
2023-03-10T08:51:31.434Z,1.00
2023-03-10T08:54:01.299Z,1.07
2023-03-10T08:56:29.417Z,0.80
2023-03-10T08:58:59.431Z,0.90
2023-03-10T09:01:35.800Z,1.60
2023-03-10T09:04:06.276Z,1.23
2023-03-10T09:06:34.527Z,1.10
2023-03-10T09:09:02.800Z,1.03
2023-03-10T09:11:38.948Z,1.00
2023-03-10T09:14:09.456Z,1.97
2023-03-10T09:16:41.368Z,1.40
2023-03-10T09:19:11.295Z,1.30
2023-03-10T09:21:41.956Z,0.90
2023-03-10T09:24:09.901Z,0.67
2023-03-10T09:26:37.625Z,1.20
2023-03-10T09:29:05.293Z,0.97
2023-03-10T09:31:39.657Z,0.80
2023-03-10T09:34:08.537Z,0.77
2023-03-10T09:36:36.644Z,1.00
2023-03-10T09:39:05.484Z,1.00
2023-03-10T09:42:11.894Z,0.73
2023-03-10T09:44:49.355Z,0.67
2023-03-10T09:47:21.955Z,1.27
2023-03-10T09:50:20.919Z,1.30
2023-03-10T09:53:07.513Z,1.33
2023-03-10T09:55:47.924Z,1.00
2023-03-10T09:58:41.610Z,1.00
2023-03-10T10:01:21.675Z,1.00
2023-03-10T10:04:15.574Z,1.63
2023-03-10T10:06:51.268Z,1.00
2023-03-10T10:09:28.053Z,0.97
2023-03-10T10:11:56.258Z,1.73
2023-03-10T10:14:30.833Z,0.70
2023-03-10T10:17:01.067Z,0.40
2023-03-10T10:19:29.483Z,1.53
2023-03-10T10:22:15.365Z,0.97
2023-03-10T10:25:01.296Z,1.67
2023-03-10T10:27:32.239Z,0.80
2023-03-10T10:29:59.725Z,0.50
2023-03-10T10:32:27.069Z,1.00
2023-03-10T10:35:15.310Z,0.73
2023-03-10T10:37:43.936Z,0.70
2023-03-10T10:40:26.750Z,1.27
2023-03-10T10:42:56.331Z,0.67
2023-03-10T10:45:37.908Z,0.80
2023-03-10T10:48:06.687Z,1.30
2023-03-10T10:50:37.841Z,0.97
2023-03-10T10:53:24.462Z,0.90
2023-03-10T10:56:17.462Z,0.70
2023-03-10T10:59:00.709Z,0.90
2023-03-10T11:01:47.139Z,0.60
2023-03-10T11:04:17.392Z,0.83
2023-03-10T11:06:45.220Z,1.03
2023-03-10T11:09:22.882Z,0.93
2023-03-10T11:11:56.206Z,0.70
2023-03-10T11:14:35.880Z,0.87
2023-03-10T11:17:15.083Z,1.20
2023-03-10T11:20:15.213Z,1.20
2023-03-10T11:22:53.298Z,0.77
2023-03-10T11:25:53.048Z,0.80
2023-03-10T11:28:42.909Z,1.53
2023-03-10T11:31:54.263Z,0.73
2023-03-10T11:34:30.751Z,1.20
2023-03-10T11:37:06.501Z,0.90
2023-03-10T11:39:51.800Z,0.97
2023-03-10T11:42:46.678Z,0.87
2023-03-10T11:45:29.032Z,1.03
2023-03-10T11:48:16.683Z,1.30
2023-03-10T11:50:52.969Z,1.53
2023-03-10T11:54:01.843Z,1.30
2023-03-10T11:56:30.933Z,1.67
2023-03-10T11:59:21.487Z,1.00
2023-03-10T12:01:54.896Z,1.40
2023-03-10T12:04:31.618Z,1.00
2023-03-10T12:07:23.799Z,1.00
2023-03-10T12:10:07.972Z,1.13
2023-03-10T12:12:39.075Z,1.67
2023-03-10T12:15:27.886Z,0.97
2023-03-10T12:17:57.318Z,1.47
2023-03-10T12:20:31.713Z,1.67
2023-03-10T12:23:16.116Z,1.50
2023-03-10T12:25:45.337Z,1.50
2023-03-10T12:29:16.519Z,1.53
2023-03-10T12:31:56.049Z,1.70
2023-03-10T12:34:32.407Z,1.17
2023-03-10T12:37:10.097Z,1.13
2023-03-10T12:39:39.867Z,1.60
2023-03-10T12:42:27.972Z,1.00
2023-03-10T12:45:11.831Z,2.23
2023-03-10T12:47:53.320Z,1.03
2023-03-10T12:50:34.291Z,1.20
2023-03-10T12:53:11.312Z,1.40
2023-03-10T12:55:42.456Z,1.13
2023-03-10T12:58:25.495Z,1.67
2023-03-10T13:01:06.732Z,1.43
2023-03-10T13:03:47.585Z,1.43
2023-03-10T13:06:14.839Z,1.37
2023-03-10T13:09:14.748Z,1.43
2023-03-10T13:11:50.841Z,1.53
2023-03-10T13:14:39.007Z,1.47
2023-03-10T13:17:09.764Z,0.90
2023-03-10T13:19:38.241Z,1.20
2023-03-10T13:22:06.316Z,1.33
2023-03-10T13:24:37.436Z,1.97
2023-03-10T13:27:16.267Z,1.90
2023-03-10T13:30:20.803Z,0.90
2023-03-10T13:32:56.647Z,1.20
2023-03-10T13:35:30.554Z,1.20
2023-03-10T13:38:20.945Z,0.90
2023-03-10T13:41:04.280Z,1.37
2023-03-10T13:43:49.609Z,1.50
2023-03-10T13:46:52.435Z,1.00
2023-03-10T13:49:25.751Z,1.23
2023-03-10T13:51:59.952Z,1.97
2023-03-10T13:54:37.264Z,1.37
2023-03-10T13:57:34.236Z,1.40
2023-03-10T14:00:08.964Z,1.50
2023-03-10T14:02:39.921Z,1.30
2023-03-10T14:05:29.387Z,1.40
2023-03-10T14:08:01.329Z,1.57
2023-03-10T14:10:28.937Z,1.73
2023-03-10T14:12:57.601Z,1.00
2023-03-10T14:15:42.759Z,1.63
2023-03-10T14:18:17.520Z,1.80
2023-03-10T14:20:47.748Z,1.73
2023-03-10T14:23:23.898Z,1.63
2023-03-10T14:25:58.636Z,1.87
2023-03-10T14:28:30.889Z,2.43
2023-03-10T14:31:23.332Z,1.63
2023-03-10T14:33:51.630Z,1.83
2023-03-10T14:36:19.220Z,2.40
2023-03-10T14:38:49.349Z,2.23
2023-03-10T14:42:01.189Z,2.53
2023-03-10T15:06:44.419Z,2.23
2023-03-10T15:09:23.122Z,2.07
2023-03-10T15:11:57.321Z,2.40
2023-03-10T15:14:24.983Z,3.90
2023-03-10T15:16:52.634Z,3.17
2023-03-10T15:19:31.974Z,2.57
2023-03-10T15:22:03.840Z,3.03
2023-03-10T15:24:31.085Z,2.77
2023-03-10T15:26:59.658Z,2.93
2023-03-10T15:29:27.113Z,2.77
2023-03-10T15:31:54.418Z,2.40
2023-03-10T15:34:23.760Z,2.60
2023-03-10T15:36:52.270Z,1.67
2023-03-10T15:39:31.079Z,1.67
2023-03-10T15:42:00.167Z,1.53
2023-03-10T15:44:27.693Z,1.30
2023-03-10T15:46:55.991Z,2.53
2023-03-10T15:49:23.581Z,2.47
2023-03-10T15:51:52.535Z,2.73
2023-03-10T15:54:19.946Z,2.73
2023-03-10T15:56:47.254Z,3.20
2023-03-10T15:59:14.840Z,3.43
2023-03-10T16:01:42.180Z,3.07
2023-03-10T16:04:09.579Z,2.57
2023-03-10T16:06:37.040Z,2.60
2023-03-10T16:09:05.614Z,3.50
2023-03-10T16:11:36.626Z,3.27
2023-03-10T16:14:04.345Z,3.13
2023-03-10T16:16:31.955Z,3.63
2023-03-10T16:18:59.707Z,3.00
2023-03-10T16:21:29.358Z,2.77
2023-03-10T16:23:57.248Z,2.50
2023-03-10T16:26:25.184Z,3.97
2023-03-10T16:28:54.957Z,2.70
2023-03-10T16:31:26.390Z,2.20
2023-03-10T16:33:57.231Z,2.80
2023-03-10T16:36:27.886Z,1.97
2023-03-10T16:38:57.976Z,2.50
2023-03-10T16:41:27.384Z,2.20
2023-03-10T16:43:58.318Z,1.60
2023-03-10T16:46:32.308Z,1.67
2023-03-10T16:49:01.273Z,1.33
2023-03-10T16:51:40.194Z,1.50
2023-03-10T16:54:16.692Z,2.07
2023-03-10T17:22:29.709Z,2.83
2023-03-10T17:24:59.155Z,2.83
2023-03-10T17:27:38.702Z,2.63
2023-03-10T17:30:19.766Z,2.90
2023-03-10T17:33:07.048Z,2.57
2023-03-10T17:45:06.902Z,3.43
2023-03-10T17:47:54.110Z,2.20
2023-03-10T17:50:48.075Z,2.57
2023-03-10T17:53:18.940Z,3.90
2023-03-10T17:56:19.262Z,5.70
2023-03-10T17:59:07.904Z,3.23
2023-03-10T18:08:07.048Z,3.00
2023-03-10T18:10:55.958Z,2.97
2023-03-10T18:13:39.353Z,2.83
2023-03-10T18:16:20.136Z,3.47
2023-03-10T18:18:48.264Z,2.93
2023-03-10T18:21:24.350Z,4.07
2023-03-10T18:23:54.073Z,3.40
2023-03-10T18:26:30.021Z,3.27
2023-03-10T18:29:02.565Z,2.57
2023-03-10T18:31:35.405Z,2.73
2023-03-10T18:34:05.074Z,2.70
2023-03-10T18:36:37.829Z,2.63
2023-03-10T18:53:51.391Z,2.55
2023-03-10T18:56:22.656Z,2.27
2023-03-10T18:58:52.029Z,2.63
2023-03-10T19:07:47.411Z,2.65
2023-03-10T19:10:54.057Z,1.80
2023-03-10T19:14:15.910Z,2.53
2023-03-10T19:17:18.475Z,2.13
2023-03-10T19:19:49.728Z,2.67
2023-03-10T19:22:17.174Z,1.90
2023-03-10T19:24:44.757Z,1.90
2023-03-10T19:27:12.384Z,3.33
2023-03-10T19:29:42.088Z,2.50
2023-03-10T19:32:12.013Z,2.77
2023-03-10T19:34:39.502Z,2.00
2023-03-10T19:37:06.772Z,2.87
2023-03-10T19:39:33.993Z,3.10
2023-03-10T19:42:01.390Z,3.00
2023-03-10T19:44:28.852Z,2.20
2023-03-10T19:46:56.329Z,3.17
2023-03-10T19:49:24.663Z,2.77
2023-03-10T19:51:52.957Z,3.00
2023-03-10T19:54:20.358Z,4.10
2023-03-10T19:56:51.970Z,2.83
2023-03-10T19:59:19.437Z,3.13
2023-03-10T20:02:01.686Z,2.53
2023-03-10T20:04:29.323Z,2.13
2023-03-10T20:07:00.333Z,2.17
2023-03-10T20:09:27.991Z,2.47
2023-03-10T20:12:00.598Z,2.67
2023-03-10T20:14:28.946Z,2.80
2023-03-10T20:16:56.568Z,3.00
2023-03-10T20:19:24.008Z,2.97
2023-03-10T20:21:51.618Z,2.27
2023-03-10T20:24:19.273Z,3.03
2023-03-10T20:26:48.782Z,2.47
2023-03-10T20:29:16.080Z,3.20
2023-03-10T20:31:43.514Z,3.63
2023-03-10T20:34:23.940Z,2.93
2023-03-10T20:36:51.215Z,2.53
2023-03-10T20:39:18.588Z,2.50
2023-03-10T20:41:47.802Z,2.87
2023-03-10T20:44:15.631Z,2.30
2023-03-10T20:46:45.000Z,2.83
2023-03-10T20:49:13.383Z,3.20
2023-03-10T20:51:41.314Z,4.00
2023-03-10T20:54:09.097Z,3.30
2023-03-10T20:56:36.702Z,3.27
2023-03-10T20:59:04.694Z,2.67
2023-03-10T21:01:32.193Z,3.50
2023-03-10T21:04:02.181Z,2.67
2023-03-10T21:06:31.820Z,2.70
2023-03-10T21:09:02.101Z,3.27
2023-03-10T21:11:29.592Z,2.90
2023-03-10T21:13:59.407Z,2.67
2023-03-10T21:16:32.831Z,3.63
2023-03-10T21:19:02.809Z,3.00
2023-03-10T21:21:32.007Z,2.93
2023-03-10T21:23:59.561Z,3.17
2023-03-10T21:26:27.696Z,2.97
2023-03-10T21:28:55.388Z,2.37
2023-03-10T21:31:23.275Z,2.47
2023-03-10T21:34:48.391Z,2.53
2023-03-10T21:37:08.894Z,1.43
2023-03-10T21:39:44.735Z,2.27
2023-03-10T21:42:15.224Z,10.10
2023-03-10T21:44:42.948Z,4.27
2023-03-10T21:47:14.837Z,2.73
2023-03-10T21:49:42.345Z,2.33
2023-03-10T21:52:12.235Z,2.97
2023-03-10T21:54:41.071Z,2.10
2023-03-10T21:57:11.086Z,2.53
2023-03-10T21:59:39.266Z,3.97
2023-03-10T22:02:08.544Z,3.67
2023-03-10T22:04:38.152Z,2.93
2023-03-10T22:07:07.485Z,2.93
2023-03-10T22:09:37.406Z,3.07
2023-03-10T22:12:05.098Z,3.13
2023-03-10T22:14:32.639Z,2.50
2023-03-10T22:17:00.273Z,2.37
2023-03-10T22:19:28.019Z,3.03
2023-03-10T22:21:55.703Z,4.63
2023-03-10T22:24:23.082Z,4.37
2023-03-10T22:26:50.482Z,3.53
2023-03-10T22:29:18.231Z,2.87
2023-03-10T22:31:45.796Z,3.33
2023-03-10T22:34:13.147Z,3.60
2023-03-10T22:36:40.787Z,3.07
2023-03-10T22:39:08.537Z,4.13
2023-03-10T22:41:38.460Z,4.23
2023-03-10T22:44:06.337Z,3.73
2023-03-10T22:46:33.976Z,3.27
2023-03-10T22:49:01.430Z,4.30
2023-03-10T22:51:29.007Z,2.80
2023-03-10T22:53:56.576Z,3.10
2023-03-10T22:56:23.922Z,2.87
2023-03-10T22:58:51.437Z,3.77
2023-03-10T23:01:19.167Z,3.77
2023-03-10T23:03:46.691Z,4.00
2023-03-10T23:06:14.532Z,3.87
2023-03-10T23:08:44.207Z,3.60
2023-03-10T23:11:14.456Z,4.30
2023-03-10T23:13:43.003Z,2.70
2023-03-10T23:16:10.627Z,3.53
2023-03-10T23:18:38.367Z,3.87
2023-03-10T23:21:06.752Z,3.47
2023-03-10T23:23:35.062Z,3.30
2023-03-10T23:26:03.858Z,3.33
2023-03-10T23:28:31.841Z,3.50
2023-03-10T23:31:00.633Z,3.00
2023-03-10T23:33:29.272Z,2.67
2023-03-10T23:35:56.865Z,2.30
2023-03-10T23:38:26.672Z,2.37
2023-03-10T23:40:56.094Z,3.30
2023-03-10T23:43:24.250Z,3.17
2023-03-10T23:45:51.890Z,0.80
2023-03-10T23:48:20.508Z,0.80
2023-03-10T23:50:50.588Z,0.40
2023-03-10T23:53:23.823Z,0.70
2023-03-10T23:55:57.162Z,0.43
2023-03-10T23:58:25.036Z,0.80
